Etusivu
METAR-TAF:

METAR-TAF

Lentoasemat :

Førde, Norja

Leveyspiiri: 61-27N, Pituuspiiri: 005-52E, korkeus merenpinnasta: 150 m

Tämänhetkinen sää

Tämä raportti tehtiin 40 minuuttia sitten, kello 19.20 UTC
Tuuli 3 kn pohjoisen/luoteesta, vaihdellen lännen/luoteen ja pohjoisen välillä
Lämpötila 13°C
Kosteus 82%
Ilmanpaine 1013 hPa
Näkyvyys 10 km tai enemmän
Hajanaisia pilviä 2000 ft:n korkeudessa
Hajonneita pilviä 10000 ft:n korkeudessa

METAR: ENBL 221920Z 33003KT 290V010 9999 SCT020 BKN100 13/10 Q1013

Aika: 22:00 (20:00 UTC)

Sääennuste

Tämä raportti tehtiin 3 tuntia ja 0 minuuttia sitten, kello 17.00 UTC
Ennuste voimassa 22. päivästä klo 18 UTC - 22. päivään klo 22 UTC
Tuuli 8 kn lännestä/luoteesta
Näkyvyys 10 km tai enemmän
Muutamia pilviä 2000 ft:n korkeudessa
Hajanaisia pilviä 3000 ft:n korkeudessa
Hajonneita pilviä 6000 ft:n korkeudessa

TAF: ENBL 221700Z 2218/2222 30008KT 9999 FEW020 SCT030 BKN060

Säähavainnot ja -ennusteet yli 4000 lentoasemalta (METAR- ja TAF-raportit).

Käytössä olevat sääasemat on merkitty karttaan keltaisilla ja punaisilla pisteillä.

Aseta hiiri pisteen päälle nähdäksesi sääaseman nimen.

Klikkaa sitten nähdäksesi säähavainnot ja -ennusteet.

Kartan vaihtaminen: klikkaa mustalla rastilla varustettuja vihreitä pisteitä, niin voit zoomata sisään; viivalla varustettua vihreää pistettä, niin voit zoomata ulos tai vihreitä nuolia, niin pääset viereisille kartoille.


METAR-TAF: